createdAt,value
2023-09-30T00:00:22.090Z,17.57
2023-09-30T00:01:16.061Z,17.58
2023-09-30T00:01:50.953Z,17.58
2023-09-30T00:02:24.928Z,17.62
2023-09-30T00:02:59.267Z,17.62
2023-09-30T00:03:33.244Z,17.61
2023-09-30T00:04:08.502Z,17.62
2023-09-30T00:04:42.180Z,17.63
2023-09-30T00:05:16.383Z,17.64
2023-09-30T00:05:49.716Z,17.62
2023-09-30T00:06:23.249Z,17.62
2023-09-30T00:06:56.740Z,17.61
2023-09-30T00:07:30.239Z,17.61
2023-09-30T00:08:04.544Z,17.62
2023-09-30T00:08:40.546Z,17.64
2023-09-30T00:09:14.864Z,17.63
2023-09-30T00:09:48.521Z,17.59
2023-09-30T00:10:22.002Z,17.64
2023-09-30T00:10:56.021Z,17.64
2023-09-30T00:11:29.306Z,17.60
2023-09-30T00:12:03.233Z,17.61
2023-09-30T00:12:38.837Z,17.62
2023-09-30T00:13:15.991Z,17.63
2023-09-30T00:13:52.680Z,17.62
2023-09-30T00:14:27.404Z,17.63
2023-09-30T00:15:00.873Z,17.63
2023-09-30T00:15:35.132Z,17.63
2023-09-30T00:16:08.514Z,17.64
2023-09-30T00:16:42.033Z,17.65
2023-09-30T00:17:16.444Z,17.64
2023-09-30T00:17:50.010Z,17.66
2023-09-30T00:18:23.495Z,17.68
2023-09-30T00:18:57.194Z,17.64
2023-09-30T00:19:30.930Z,17.61
2023-09-30T00:20:05.457Z,17.61
2023-09-30T00:20:38.853Z,17.59
2023-09-30T00:21:12.954Z,17.58
2023-09-30T00:21:46.520Z,17.58
2023-09-30T00:22:19.960Z,17.57
2023-09-30T00:22:53.262Z,17.56
2023-09-30T00:23:26.677Z,17.55
2023-09-30T00:24:00.227Z,17.47
2023-09-30T00:24:33.832Z,17.52
2023-09-30T00:25:07.887Z,17.51
2023-09-30T00:25:41.260Z,17.50
2023-09-30T00:26:15.591Z,17.51
2023-09-30T00:26:52.018Z,17.51
2023-09-30T00:27:25.566Z,17.51
2023-09-30T00:27:58.925Z,17.51
2023-09-30T00:28:32.217Z,17.53
2023-09-30T00:29:06.425Z,17.52
2023-09-30T00:29:40.021Z,17.51
2023-09-30T00:30:13.764Z,17.51
2023-09-30T00:30:49.079Z,17.52
2023-09-30T00:31:22.888Z,17.54
2023-09-30T00:31:56.269Z,17.52
2023-09-30T00:32:29.930Z,17.51
2023-09-30T00:33:04.429Z,17.51
2023-09-30T00:33:38.438Z,17.50
2023-09-30T00:34:11.891Z,17.50
2023-09-30T00:34:46.110Z,17.51
2023-09-30T00:35:19.460Z,17.51
2023-09-30T00:35:52.858Z,17.51
2023-09-30T00:36:26.507Z,17.51
2023-09-30T00:36:59.790Z,17.51
2023-09-30T00:37:33.887Z,17.52
2023-09-30T00:38:07.277Z,17.52
2023-09-30T00:38:41.440Z,17.52
2023-09-30T00:39:14.900Z,17.52
2023-09-30T00:39:48.387Z,17.51
2023-09-30T00:40:21.718Z,17.52
2023-09-30T00:40:55.188Z,17.49
2023-09-30T00:41:28.652Z,17.51
2023-09-30T00:42:02.040Z,17.50
2023-09-30T00:42:35.590Z,17.52
2023-09-30T00:43:19.794Z,17.52
2023-09-30T00:43:53.212Z,17.51
2023-09-30T00:44:28.155Z,17.49
2023-09-30T00:45:06.369Z,17.43
2023-09-30T00:45:40.179Z,17.39
2023-09-30T00:46:49.577Z,17.39
2023-09-30T00:47:24.307Z,17.31
2023-09-30T00:47:58.050Z,17.30
2023-09-30T00:48:31.876Z,17.27
2023-09-30T00:49:05.547Z,17.26
2023-09-30T00:49:40.009Z,17.25
2023-09-30T00:50:14.812Z,17.26
2023-09-30T00:50:48.289Z,17.25
2023-09-30T00:51:22.658Z,17.25
2023-09-30T00:51:57.059Z,17.25
2023-09-30T00:52:34.552Z,17.30
2023-09-30T00:53:08.966Z,17.29
2023-09-30T00:53:45.709Z,17.28
2023-09-30T00:54:20.501Z,17.31
2023-09-30T00:54:56.392Z,17.31
2023-09-30T00:55:29.980Z,17.27
2023-09-30T00:56:03.927Z,17.30
2023-09-30T00:56:44.780Z,17.36
2023-09-30T00:57:21.023Z,17.29
2023-09-30T00:57:54.930Z,17.25
2023-09-30T00:58:30.325Z,17.22
2023-09-30T00:59:05.397Z,17.23
2023-09-30T00:59:40.662Z,17.23
2023-09-30T01:00:14.794Z,17.20
2023-09-30T01:00:48.676Z,17.20
2023-09-30T01:01:23.591Z,17.20
2023-09-30T01:02:00.380Z,17.20
2023-09-30T01:02:36.292Z,17.22
2023-09-30T01:03:13.419Z,17.20
2023-09-30T01:03:48.258Z,17.19
2023-09-30T01:04:22.641Z,17.19
2023-09-30T01:04:57.295Z,17.19
2023-09-30T01:05:31.839Z,17.22
2023-09-30T01:06:05.468Z,17.27
2023-09-30T01:06:39.465Z,17.23
2023-09-30T01:07:12.910Z,17.24
2023-09-30T01:07:46.397Z,17.29
2023-09-30T01:08:21.369Z,17.31
2023-09-30T01:08:55.241Z,17.27
2023-09-30T01:09:29.265Z,17.28
2023-09-30T01:10:03.896Z,17.30
2023-09-30T01:10:37.360Z,17.28
2023-09-30T01:11:10.861Z,17.27
2023-09-30T01:11:45.765Z,17.27
2023-09-30T01:12:19.367Z,17.27
2023-09-30T01:12:52.797Z,17.26
2023-09-30T01:13:34.341Z,17.28
2023-09-30T01:14:41.921Z,17.29
2023-09-30T01:15:15.738Z,17.24
2023-09-30T01:15:49.148Z,17.25
2023-09-30T01:16:23.127Z,17.27
2023-09-30T01:16:57.311Z,17.29
2023-09-30T01:17:30.926Z,17.29
2023-09-30T01:18:05.426Z,17.32
2023-09-30T01:18:41.521Z,17.32
2023-09-30T01:19:15.125Z,17.35
2023-09-30T01:19:48.583Z,17.37
2023-09-30T01:20:23.565Z,17.39
2023-09-30T01:20:57.980Z,17.38
2023-09-30T01:21:35.758Z,17.39
2023-09-30T01:22:11.290Z,17.42
2023-09-30T01:22:46.800Z,17.45
2023-09-30T01:23:20.690Z,17.40
2023-09-30T01:23:54.061Z,17.41
2023-09-30T01:24:28.605Z,17.41
2023-09-30T01:25:01.988Z,17.42
2023-09-30T01:25:36.401Z,17.46
2023-09-30T01:26:14.076Z,17.46
2023-09-30T01:26:47.422Z,17.48
2023-09-30T01:27:21.053Z,17.48
2023-09-30T01:27:55.309Z,17.47
2023-09-30T01:28:28.626Z,17.45
2023-09-30T01:29:01.912Z,17.49
2023-09-30T01:29:36.290Z,17.51
2023-09-30T01:30:12.471Z,17.46
2023-09-30T01:30:46.638Z,17.45
2023-09-30T01:31:20.044Z,17.44
2023-09-30T01:31:53.646Z,17.44
2023-09-30T01:32:27.348Z,17.43
2023-09-30T01:33:01.899Z,17.43
2023-09-30T01:33:35.661Z,17.41
2023-09-30T01:34:12.100Z,17.48
2023-09-30T01:34:45.596Z,17.44
2023-09-30T01:35:19.008Z,17.44
2023-09-30T01:35:52.642Z,17.43
2023-09-30T01:36:26.131Z,17.43
2023-09-30T01:36:59.592Z,17.43
2023-09-30T01:37:33.446Z,17.41
2023-09-30T01:38:06.931Z,17.45
2023-09-30T01:38:40.412Z,17.43
2023-09-30T01:39:15.827Z,17.41
2023-09-30T01:39:51.677Z,17.40
2023-09-30T01:40:25.056Z,17.41
2023-09-30T01:41:00.892Z,17.38
2023-09-30T01:41:34.977Z,17.39
2023-09-30T01:42:08.388Z,17.41
2023-09-30T01:42:42.063Z,17.39
2023-09-30T01:43:16.593Z,17.38
2023-09-30T01:43:50.384Z,17.36
2023-09-30T01:44:23.780Z,17.38
2023-09-30T01:44:58.308Z,17.36
2023-09-30T01:45:31.776Z,17.35
2023-09-30T01:46:06.801Z,17.34
2023-09-30T01:46:40.825Z,17.34
2023-09-30T01:47:14.239Z,17.34
2023-09-30T01:47:47.813Z,17.35
2023-09-30T01:48:21.381Z,17.37
2023-09-30T01:48:54.883Z,17.38
2023-09-30T01:50:44.410Z,17.22
2023-09-30T01:51:18.054Z,17.18
2023-09-30T01:51:51.701Z,17.19
2023-09-30T01:52:25.611Z,17.18
2023-09-30T01:52:59.068Z,17.17
2023-09-30T01:53:32.592Z,17.08
2023-09-30T01:54:06.258Z,17.15
2023-09-30T01:54:39.929Z,17.17
2023-09-30T01:55:13.662Z,17.20
2023-09-30T01:55:47.170Z,17.19
2023-09-30T01:56:21.468Z,17.20
2023-09-30T01:56:55.276Z,17.16
2023-09-30T01:57:28.700Z,17.13
2023-09-30T01:58:02.208Z,17.12
2023-09-30T01:58:35.811Z,17.10
2023-09-30T01:59:09.211Z,17.11
2023-09-30T01:59:42.673Z,17.10
2023-09-30T02:00:16.138Z,17.09
2023-09-30T02:00:49.632Z,17.11
2023-09-30T02:01:23.609Z,17.10
2023-09-30T02:01:58.221Z,17.08
2023-09-30T02:02:32.457Z,17.08
2023-09-30T02:03:06.225Z,17.12
2023-09-30T02:03:39.912Z,17.09
2023-09-30T02:04:16.851Z,17.06
2023-09-30T02:04:50.347Z,17.06
2023-09-30T02:05:24.718Z,17.05
2023-09-30T02:06:01.029Z,17.04
2023-09-30T02:06:35.129Z,17.02
2023-09-30T02:07:08.744Z,17.00
2023-09-30T02:07:42.329Z,16.99
2023-09-30T02:08:16.975Z,16.99
2023-09-30T02:08:50.728Z,16.97
2023-09-30T02:09:24.403Z,16.98
2023-09-30T02:09:59.129Z,16.97
2023-09-30T02:10:34.698Z,16.98
2023-09-30T02:11:08.310Z,16.97
2023-09-30T02:11:42.802Z,16.98
2023-09-30T02:12:16.465Z,16.97
2023-09-30T02:12:50.766Z,16.95
2023-09-30T02:13:24.368Z,16.96
2023-09-30T02:13:58.207Z,16.97
2023-09-30T02:14:33.578Z,16.96
2023-09-30T02:15:08.633Z,16.98
2023-09-30T02:15:45.266Z,16.98
2023-09-30T02:16:18.823Z,16.95
2023-09-30T02:16:52.315Z,16.92
2023-09-30T02:17:26.066Z,16.92
2023-09-30T02:18:01.796Z,16.93
2023-09-30T02:18:35.653Z,17.02
2023-09-30T02:19:12.445Z,16.98
2023-09-30T02:19:46.424Z,16.98
2023-09-30T02:20:28.257Z,16.96
2023-09-30T02:21:01.806Z,16.90
2023-09-30T02:21:37.138Z,16.91
2023-09-30T02:22:10.568Z,16.85
2023-09-30T02:22:45.246Z,16.92
2023-09-30T02:23:20.319Z,16.94
2023-09-30T02:23:56.788Z,16.90
2023-09-30T02:24:30.620Z,16.84
2023-09-30T02:25:08.672Z,16.83
2023-09-30T02:25:43.341Z,16.83
2023-09-30T02:26:17.246Z,16.80
2023-09-30T02:26:50.712Z,16.82
2023-09-30T02:27:24.172Z,16.81
2023-09-30T02:27:58.550Z,16.82
2023-09-30T02:28:33.763Z,16.83
2023-09-30T02:29:09.034Z,16.81
2023-09-30T02:29:42.712Z,16.79
2023-09-30T02:30:17.615Z,16.82
2023-09-30T02:30:51.471Z,16.79
2023-09-30T02:31:25.400Z,16.83
2023-09-30T02:31:59.694Z,16.82
2023-09-30T02:32:34.955Z,16.78
2023-09-30T02:33:08.686Z,16.78
2023-09-30T02:33:42.607Z,16.79
2023-09-30T02:34:16.418Z,16.72
2023-09-30T02:34:49.935Z,16.72
2023-09-30T02:35:23.579Z,16.71
2023-09-30T02:35:57.213Z,16.66
2023-09-30T02:36:30.932Z,16.69
2023-09-30T02:37:04.623Z,16.75
2023-09-30T02:37:38.621Z,16.68
2023-09-30T02:38:12.544Z,16.66
2023-09-30T02:38:47.786Z,16.62
2023-09-30T02:39:21.358Z,16.64
2023-09-30T02:39:55.008Z,16.62
2023-09-30T02:40:28.796Z,16.63
2023-09-30T02:41:04.264Z,16.62
2023-09-30T02:41:38.923Z,16.61
2023-09-30T02:42:12.516Z,16.62
2023-09-30T02:42:46.005Z,16.63
2023-09-30T02:43:19.390Z,16.61
2023-09-30T02:43:52.757Z,16.61
2023-09-30T02:44:26.193Z,16.59
2023-09-30T02:45:02.853Z,16.56
2023-09-30T02:45:39.536Z,16.55
2023-09-30T02:46:13.940Z,16.56
2023-09-30T02:46:47.468Z,16.55
2023-09-30T02:47:21.608Z,16.55
2023-09-30T02:47:55.186Z,16.53
2023-09-30T02:48:29.306Z,16.54
2023-09-30T02:49:03.806Z,16.55
2023-09-30T02:49:38.401Z,16.53
2023-09-30T02:50:17.829Z,16.53
2023-09-30T02:50:51.200Z,16.48
2023-09-30T02:51:24.943Z,16.50
2023-09-30T02:51:58.362Z,16.47
2023-09-30T02:52:32.422Z,16.42
2023-09-30T02:53:05.876Z,16.39
2023-09-30T02:53:40.007Z,16.38
2023-09-30T02:54:16.835Z,16.40
2023-09-30T02:54:50.574Z,16.42
2023-09-30T02:55:24.059Z,16.36
2023-09-30T02:56:01.315Z,16.34
2023-09-30T02:56:35.264Z,16.22
2023-09-30T02:57:10.920Z,16.31
2023-09-30T02:57:45.482Z,16.33
2023-09-30T02:58:19.651Z,16.34
2023-09-30T02:58:54.250Z,16.28
2023-09-30T02:59:28.829Z,16.28
2023-09-30T03:00:13.976Z,16.26
2023-09-30T03:00:50.937Z,16.25
2023-09-30T03:01:25.116Z,16.20
2023-09-30T03:01:58.909Z,16.18
2023-09-30T03:02:32.533Z,16.24
2023-09-30T03:03:06.117Z,16.33
2023-09-30T03:03:41.227Z,16.24
2023-09-30T03:04:14.751Z,16.33
2023-09-30T03:04:49.154Z,16.34
2023-09-30T03:05:24.778Z,16.32
2023-09-30T03:05:58.832Z,16.32
2023-09-30T03:06:32.825Z,16.26
2023-09-30T03:07:06.728Z,16.22
2023-09-30T03:07:40.216Z,16.22
2023-09-30T03:08:13.733Z,16.21
2023-09-30T03:08:48.201Z,16.19
2023-09-30T03:09:22.184Z,16.19
2023-09-30T03:09:55.638Z,16.22
2023-09-30T03:10:29.117Z,16.21
2023-09-30T03:11:03.466Z,16.19
2023-09-30T03:11:37.042Z,16.16
2023-09-30T03:12:10.706Z,16.19
2023-09-30T03:12:44.228Z,16.23
2023-09-30T03:13:19.870Z,16.18
2023-09-30T03:13:53.826Z,16.12
2023-09-30T03:14:27.329Z,16.05
2023-09-30T03:15:00.742Z,16.10
2023-09-30T03:15:34.886Z,16.08
2023-09-30T03:16:08.297Z,16.06
2023-09-30T03:16:42.840Z,16.06
2023-09-30T03:17:16.310Z,16.02
2023-09-30T03:17:53.437Z,16.02
2023-09-30T03:18:28.056Z,16.02
2023-09-30T03:19:01.530Z,16.02
2023-09-30T03:19:35.109Z,16.04
2023-09-30T03:20:13.387Z,16.01
2023-09-30T03:20:46.963Z,16.02
2023-09-30T03:21:21.340Z,15.99
2023-09-30T03:21:54.727Z,15.99
2023-09-30T03:22:28.499Z,16.01
2023-09-30T03:23:03.452Z,16.00
2023-09-30T03:23:36.959Z,15.96
2023-09-30T03:24:10.873Z,15.95
2023-09-30T03:24:44.419Z,15.97
2023-09-30T03:25:20.001Z,15.99
2023-09-30T03:25:53.337Z,15.98
2023-09-30T03:26:26.713Z,16.00
2023-09-30T03:27:00.043Z,15.99
2023-09-30T03:27:34.986Z,15.95
2023-09-30T03:28:08.985Z,15.95
2023-09-30T03:28:42.315Z,15.94
2023-09-30T03:29:15.666Z,15.99
2023-09-30T03:29:49.007Z,16.01
2023-09-30T03:30:22.593Z,15.96
2023-09-30T03:30:58.007Z,15.98
2023-09-30T03:31:31.677Z,15.95
2023-09-30T03:32:05.558Z,15.92
2023-09-30T03:32:39.829Z,15.91
2023-09-30T03:33:13.632Z,15.89
2023-09-30T03:33:48.101Z,15.88
2023-09-30T03:34:21.825Z,15.89
2023-09-30T03:34:55.219Z,15.92
2023-09-30T03:35:28.555Z,15.87
2023-09-30T03:36:02.042Z,15.88
2023-09-30T03:36:37.087Z,15.86
2023-09-30T03:37:11.347Z,15.85
2023-09-30T03:37:46.141Z,15.77
2023-09-30T03:38:21.544Z,15.69
2023-09-30T03:38:56.010Z,15.63
2023-09-30T03:39:29.228Z,15.60
2023-09-30T03:40:13.213Z,15.58
2023-09-30T03:40:50.332Z,15.54
2023-09-30T03:41:24.052Z,15.48
2023-09-30T03:42:00.775Z,15.44
2023-09-30T03:42:34.084Z,15.41
2023-09-30T03:43:07.246Z,15.40
2023-09-30T03:43:42.734Z,15.41
2023-09-30T03:44:15.969Z,15.37
2023-09-30T03:44:52.796Z,15.34
2023-09-30T03:45:26.194Z,15.33
2023-09-30T03:45:59.540Z,15.33
2023-09-30T03:46:33.021Z,15.32
2023-09-30T03:47:06.332Z,15.34
2023-09-30T03:47:41.135Z,15.33
2023-09-30T03:48:14.525Z,15.32
2023-09-30T03:48:48.559Z,15.30
2023-09-30T03:49:22.414Z,15.29
2023-09-30T03:49:55.858Z,15.28
2023-09-30T03:50:31.279Z,15.25
2023-09-30T03:51:17.225Z,15.30
2023-09-30T03:51:52.192Z,15.24
2023-09-30T03:52:27.042Z,15.24
2023-09-30T03:53:03.968Z,15.21
2023-09-30T03:53:37.291Z,15.21
2023-09-30T03:54:10.594Z,15.20
2023-09-30T03:54:43.944Z,15.18
2023-09-30T03:55:19.175Z,15.19
2023-09-30T03:55:56.109Z,15.16
2023-09-30T03:56:29.401Z,15.17
2023-09-30T03:57:02.785Z,15.14
2023-09-30T03:57:36.257Z,15.12
2023-09-30T03:58:09.426Z,15.10
2023-09-30T03:58:43.413Z,15.11
2023-09-30T03:59:17.366Z,15.08
2023-09-30T03:59:50.542Z,15.07
2023-09-30T04:00:25.765Z,15.08
2023-09-30T04:00:59.390Z,15.07
2023-09-30T04:01:32.853Z,15.07
2023-09-30T04:02:07.740Z,15.06
2023-09-30T04:02:44.460Z,15.06
2023-09-30T04:03:18.145Z,15.04
2023-09-30T04:03:51.850Z,15.03
2023-09-30T04:04:25.904Z,15.02
2023-09-30T04:05:00.447Z,15.01
2023-09-30T04:05:37.949Z,15.00
2023-09-30T04:06:11.384Z,14.94
2023-09-30T04:06:44.748Z,14.96
2023-09-30T04:07:18.231Z,14.97
2023-09-30T04:07:52.345Z,14.97
2023-09-30T04:08:25.629Z,15.00
2023-09-30T04:09:00.399Z,14.95
2023-09-30T04:09:34.563Z,14.93
2023-09-30T04:10:07.906Z,14.94
2023-09-30T04:10:41.125Z,14.93
2023-09-30T04:11:19.362Z,14.84
2023-09-30T04:11:52.693Z,14.90
2023-09-30T04:12:27.209Z,14.90
2023-09-30T04:13:00.475Z,14.91
2023-09-30T04:13:34.524Z,14.84
2023-09-30T04:14:09.343Z,14.88
2023-09-30T04:14:42.800Z,14.88
2023-09-30T04:15:16.826Z,14.87
2023-09-30T04:15:50.910Z,14.88
2023-09-30T04:16:24.433Z,14.86
2023-09-30T04:16:57.873Z,14.84
2023-09-30T04:17:32.303Z,14.83
2023-09-30T04:18:09.024Z,14.87
2023-09-30T04:18:42.731Z,14.89
2023-09-30T04:19:16.067Z,14.86
2023-09-30T04:19:52.262Z,14.85
2023-09-30T04:20:28.493Z,14.84
2023-09-30T04:21:03.585Z,14.83
2023-09-30T04:21:40.341Z,14.85
2023-09-30T04:22:14.463Z,14.83
2023-09-30T04:22:50.159Z,14.81
2023-09-30T04:23:24.042Z,14.82
2023-09-30T04:23:58.297Z,14.80
2023-09-30T04:24:32.019Z,14.81
2023-09-30T04:25:09.905Z,14.78
2023-09-30T04:25:44.718Z,14.78
2023-09-30T04:26:18.064Z,14.78
2023-09-30T04:26:53.873Z,14.81
2023-09-30T04:27:28.416Z,14.80
2023-09-30T04:28:03.987Z,14.78
2023-09-30T04:28:37.306Z,14.77
2023-09-30T04:29:12.072Z,14.75
2023-09-30T04:29:45.624Z,14.77
2023-09-30T04:30:19.574Z,14.75
2023-09-30T04:30:53.128Z,14.74
2023-09-30T04:31:26.648Z,14.75
2023-09-30T04:32:00.129Z,14.74
2023-09-30T04:32:33.517Z,14.72
2023-09-30T04:33:07.223Z,14.71
2023-09-30T04:33:41.129Z,14.72
2023-09-30T04:34:15.078Z,14.73
2023-09-30T04:34:48.439Z,14.71
2023-09-30T04:35:21.597Z,14.70
2023-09-30T04:35:54.813Z,14.70
2023-09-30T04:36:28.132Z,14.68
2023-09-30T04:37:01.285Z,14.68
2023-09-30T04:37:35.370Z,14.68
2023-09-30T04:38:09.052Z,14.67
2023-09-30T04:38:42.503Z,14.66
2023-09-30T04:39:17.236Z,14.66
2023-09-30T04:39:50.532Z,14.66
2023-09-30T04:40:23.816Z,14.66
2023-09-30T04:40:57.845Z,14.65
2023-09-30T04:41:31.249Z,14.64
2023-09-30T04:42:05.668Z,14.64
2023-09-30T04:42:38.915Z,14.63
2023-09-30T04:43:12.226Z,14.65
2023-09-30T04:43:45.501Z,14.64
2023-09-30T04:44:18.809Z,14.64
2023-09-30T04:44:52.611Z,14.62
2023-09-30T04:45:27.552Z,14.63
2023-09-30T04:46:00.906Z,14.63
2023-09-30T04:46:35.323Z,14.63
2023-09-30T04:47:08.613Z,14.63
2023-09-30T04:47:42.048Z,14.64
2023-09-30T04:48:15.410Z,14.63
2023-09-30T04:48:50.015Z,14.61
2023-09-30T04:49:24.900Z,14.62
2023-09-30T04:49:59.549Z,14.61
2023-09-30T04:50:32.958Z,14.62
2023-09-30T04:51:10.312Z,14.61
2023-09-30T04:51:44.162Z,14.62
2023-09-30T04:52:17.591Z,14.63
2023-09-30T04:52:52.777Z,14.61
2023-09-30T04:53:26.241Z,14.62
2023-09-30T04:54:00.949Z,14.61
2023-09-30T04:54:36.644Z,14.61
2023-09-30T04:55:10.312Z,14.63
2023-09-30T04:55:43.557Z,14.61
2023-09-30T04:56:16.667Z,14.61
2023-09-30T04:56:49.899Z,14.62
2023-09-30T04:57:23.409Z,14.60
2023-09-30T04:57:56.614Z,14.60
2023-09-30T04:58:31.037Z,14.61
2023-09-30T04:59:05.563Z,14.63
2023-09-30T04:59:38.779Z,14.61
2023-09-30T05:00:26.909Z,14.61
2023-09-30T05:01:00.782Z,14.63
2023-09-30T05:01:34.224Z,14.64
2023-09-30T05:02:08.276Z,14.66
2023-09-30T05:02:41.638Z,14.65
2023-09-30T05:03:15.093Z,14.64
2023-09-30T05:03:50.929Z,14.65
2023-09-30T05:04:25.651Z,14.67
2023-09-30T05:04:58.850Z,14.66
2023-09-30T05:05:35.144Z,14.68
2023-09-30T05:06:09.250Z,14.66
2023-09-30T05:06:42.845Z,14.67
2023-09-30T05:07:16.096Z,14.67
2023-09-30T05:07:49.681Z,14.66
2023-09-30T05:08:24.426Z,14.68
2023-09-30T05:08:57.828Z,14.71
2023-09-30T05:09:31.179Z,14.68
2023-09-30T05:10:11.708Z,14.68
2023-09-30T05:10:45.001Z,14.71
2023-09-30T05:11:18.281Z,14.72
2023-09-30T05:11:51.654Z,14.71
2023-09-30T05:12:25.077Z,14.68
2023-09-30T05:12:58.794Z,14.69
2023-09-30T05:13:32.166Z,14.70
2023-09-30T05:14:06.723Z,14.71
2023-09-30T05:14:40.263Z,14.72
2023-09-30T05:15:14.842Z,14.72
2023-09-30T05:15:48.154Z,14.73
2023-09-30T05:16:21.504Z,14.68
2023-09-30T05:16:54.973Z,14.71
2023-09-30T05:17:30.034Z,14.71
2023-09-30T05:18:03.797Z,14.74
2023-09-30T05:18:37.175Z,14.86
2023-09-30T05:19:10.541Z,14.79
2023-09-30T05:19:43.697Z,14.77
2023-09-30T05:20:19.225Z,14.78
2023-09-30T05:20:52.728Z,14.81
2023-09-30T05:21:26.178Z,14.79
2023-09-30T05:21:59.781Z,14.79
2023-09-30T05:22:33.013Z,14.78
2023-09-30T05:23:08.467Z,14.79
2023-09-30T05:23:41.804Z,14.78
2023-09-30T05:24:15.186Z,14.79
2023-09-30T05:24:49.163Z,14.79
2023-09-30T05:25:27.156Z,14.79
2023-09-30T05:26:00.575Z,14.78
2023-09-30T05:26:34.348Z,14.76
2023-09-30T05:27:07.940Z,14.75
2023-09-30T05:27:41.207Z,14.78
2023-09-30T05:28:15.056Z,14.79
2023-09-30T05:28:48.342Z,14.77
2023-09-30T05:29:21.551Z,14.78
2023-09-30T05:29:55.336Z,14.78
2023-09-30T05:30:28.750Z,14.76
2023-09-30T05:31:03.050Z,14.78
2023-09-30T05:31:36.550Z,14.77
2023-09-30T05:32:10.182Z,14.78
2023-09-30T05:32:43.501Z,14.77
2023-09-30T05:33:17.961Z,14.79
2023-09-30T05:33:51.704Z,14.81
2023-09-30T05:34:25.640Z,14.79
2023-09-30T05:34:59.265Z,14.78
2023-09-30T05:35:33.573Z,14.77
2023-09-30T05:36:06.918Z,14.77
2023-09-30T05:36:40.815Z,14.76
2023-09-30T05:37:14.331Z,14.77
2023-09-30T05:37:47.770Z,14.80
2023-09-30T05:38:21.759Z,14.77
2023-09-30T05:38:56.709Z,14.78
2023-09-30T05:39:30.298Z,14.78
2023-09-30T05:40:06.556Z,14.78
2023-09-30T05:40:40.333Z,14.77
2023-09-30T05:41:15.233Z,14.78
2023-09-30T05:41:48.556Z,14.80
2023-09-30T05:42:23.527Z,14.79
2023-09-30T05:42:59.655Z,14.77
2023-09-30T05:43:33.772Z,14.83
2023-09-30T05:44:08.837Z,14.84
2023-09-30T05:44:43.361Z,14.84
2023-09-30T05:45:17.170Z,14.88
2023-09-30T05:45:50.900Z,14.88
2023-09-30T05:46:24.494Z,14.91
2023-09-30T05:46:57.987Z,14.88
2023-09-30T05:47:31.308Z,14.89
2023-09-30T05:48:07.229Z,14.90
2023-09-30T05:48:41.185Z,14.89
2023-09-30T05:49:15.325Z,14.89
2023-09-30T05:49:48.669Z,14.92
2023-09-30T05:50:26.498Z,14.93
2023-09-30T05:50:59.943Z,14.97
2023-09-30T05:51:34.460Z,14.98
2023-09-30T05:52:07.797Z,14.98
2023-09-30T05:52:41.183Z,14.97
2023-09-30T05:53:15.435Z,14.97
2023-09-30T05:53:49.564Z,15.02
2023-09-30T05:54:23.784Z,14.98
2023-09-30T05:54:57.062Z,15.01
2023-09-30T05:55:30.630Z,15.01
2023-09-30T05:56:04.769Z,15.00
2023-09-30T05:56:44.464Z,15.00
2023-09-30T05:57:17.800Z,14.91
2023-09-30T05:57:51.428Z,14.99
2023-09-30T05:58:25.160Z,14.99
2023-09-30T05:58:58.935Z,15.00
2023-09-30T05:59:32.349Z,15.00
2023-09-30T06:00:12.985Z,15.00
2023-09-30T06:00:46.417Z,14.96
2023-09-30T06:01:20.409Z,14.96
2023-09-30T06:01:53.698Z,14.95
2023-09-30T06:02:26.939Z,14.96
2023-09-30T06:03:00.784Z,14.95
2023-09-30T06:03:35.513Z,14.92
2023-09-30T06:04:08.809Z,14.95
2023-09-30T06:04:42.206Z,14.94
2023-09-30T06:05:17.576Z,14.94
2023-09-30T06:05:50.826Z,14.94
2023-09-30T06:06:25.444Z,14.93
2023-09-30T06:06:59.434Z,14.93
2023-09-30T06:07:32.592Z,14.95
2023-09-30T06:08:06.118Z,14.93
2023-09-30T06:08:39.794Z,14.94
2023-09-30T06:09:13.195Z,14.95
2023-09-30T06:09:46.638Z,14.94
2023-09-30T06:10:20.179Z,14.93
2023-09-30T06:10:54.245Z,14.97
2023-09-30T06:11:29.809Z,14.95
2023-09-30T06:12:05.002Z,14.93
2023-09-30T06:12:38.289Z,14.94
2023-09-30T06:13:12.363Z,14.94
2023-09-30T06:13:45.596Z,14.95
2023-09-30T06:14:18.907Z,14.94
2023-09-30T06:14:54.461Z,14.97
2023-09-30T06:15:28.123Z,14.99
2023-09-30T06:16:03.849Z,14.98
2023-09-30T06:16:37.427Z,14.99
2023-09-30T06:17:10.614Z,15.00
2023-09-30T06:17:44.261Z,14.95
2023-09-30T06:18:17.658Z,15.02
2023-09-30T06:18:50.880Z,15.01
2023-09-30T06:19:24.833Z,15.03
2023-09-30T06:20:01.574Z,15.05
2023-09-30T06:20:34.842Z,15.06
2023-09-30T06:21:08.073Z,15.05
2023-09-30T06:21:41.308Z,15.09
2023-09-30T06:22:14.481Z,15.10
2023-09-30T06:22:48.711Z,15.11
2023-09-30T06:23:22.000Z,15.13
2023-09-30T06:23:55.375Z,15.14
2023-09-30T06:24:28.768Z,15.13
2023-09-30T06:25:02.202Z,15.14
2023-09-30T06:25:36.922Z,15.16
2023-09-30T06:26:10.966Z,15.18
2023-09-30T06:26:44.238Z,15.20
2023-09-30T06:27:17.490Z,15.22
2023-09-30T06:27:51.419Z,15.25
2023-09-30T06:28:27.413Z,15.27
2023-09-30T06:29:01.470Z,15.30
2023-09-30T06:29:35.230Z,15.32
2023-09-30T06:30:10.421Z,15.33
2023-09-30T06:30:46.905Z,15.36
2023-09-30T06:31:20.466Z,15.40
2023-09-30T06:31:53.897Z,15.42
2023-09-30T06:32:27.446Z,15.46
2023-09-30T06:33:02.107Z,15.48
2023-09-30T06:33:43.288Z,15.49
2023-09-30T06:34:16.556Z,15.54
2023-09-30T06:34:49.906Z,15.57
2023-09-30T06:35:23.876Z,15.55
2023-09-30T06:35:58.061Z,15.58
2023-09-30T06:36:31.273Z,15.58
2023-09-30T06:37:06.459Z,15.59
2023-09-30T06:37:40.521Z,15.62
2023-09-30T06:38:13.761Z,15.63
2023-09-30T06:38:49.591Z,15.63
2023-09-30T06:39:22.793Z,15.65
2023-09-30T06:39:57.025Z,15.65
2023-09-30T06:40:30.193Z,15.67
2023-09-30T06:41:03.505Z,15.64
2023-09-30T06:41:36.897Z,15.62
2023-09-30T06:42:10.502Z,15.62
2023-09-30T06:42:44.125Z,15.61
2023-09-30T06:43:17.912Z,15.60
2023-09-30T06:43:53.101Z,15.58
2023-09-30T06:44:26.471Z,15.55
2023-09-30T06:45:00.366Z,15.55
2023-09-30T06:45:34.528Z,15.55
2023-09-30T06:46:11.013Z,15.54
2023-09-30T06:46:44.828Z,15.53
2023-09-30T06:47:18.081Z,15.54
2023-09-30T06:47:51.236Z,15.55
2023-09-30T06:48:24.486Z,15.55
2023-09-30T06:48:58.004Z,15.56
2023-09-30T06:49:32.147Z,15.55
2023-09-30T06:50:09.067Z,15.57
2023-09-30T06:50:46.232Z,15.60
2023-09-30T06:51:19.533Z,15.62
2023-09-30T06:51:53.324Z,15.64
2023-09-30T06:52:26.571Z,15.65
2023-09-30T06:53:00.552Z,15.66
2023-09-30T06:53:33.899Z,15.68
2023-09-30T06:54:07.872Z,15.70
2023-09-30T06:54:41.277Z,15.73
2023-09-30T06:55:20.433Z,15.77
2023-09-30T06:55:53.929Z,15.81
2023-09-30T06:56:27.233Z,15.83
2023-09-30T06:57:01.101Z,15.86
2023-09-30T06:57:38.561Z,15.92
2023-09-30T06:58:12.132Z,16.05
2023-09-30T06:58:45.684Z,16.18
2023-09-30T06:59:18.888Z,16.30
2023-09-30T06:59:52.176Z,16.44
2023-09-30T07:00:27.106Z,16.56
2023-09-30T07:01:00.528Z,16.71
2023-09-30T07:01:33.863Z,16.91
2023-09-30T07:02:07.146Z,17.04
2023-09-30T07:02:41.765Z,17.18
2023-09-30T07:03:16.764Z,17.31
2023-09-30T07:03:50.558Z,17.45
2023-09-30T07:04:23.976Z,17.51
2023-09-30T07:04:57.500Z,17.52
2023-09-30T07:05:31.078Z,17.50
2023-09-30T07:06:05.195Z,17.55
2023-09-30T07:06:38.764Z,17.59
2023-09-30T07:07:12.077Z,17.58
2023-09-30T07:07:45.768Z,17.57
2023-09-30T07:08:19.306Z,17.56
2023-09-30T07:08:52.896Z,17.57
2023-09-30T07:09:26.386Z,17.58
2023-09-30T07:09:59.826Z,17.62
2023-09-30T07:10:33.216Z,17.71
2023-09-30T07:11:06.873Z,17.78
2023-09-30T07:11:40.302Z,17.86
2023-09-30T07:12:13.639Z,17.92
2023-09-30T07:12:46.839Z,17.96
2023-09-30T07:13:23.039Z,17.98
2023-09-30T07:13:56.993Z,18.00
2023-09-30T07:14:30.109Z,17.98
2023-09-30T07:15:05.442Z,17.98
2023-09-30T07:15:38.811Z,17.96
2023-09-30T07:16:12.409Z,17.94
2023-09-30T07:16:45.892Z,17.93
2023-09-30T07:17:19.016Z,17.91
2023-09-30T07:17:52.373Z,17.90
2023-09-30T07:18:26.406Z,17.88
2023-09-30T07:18:59.998Z,17.84
2023-09-30T07:19:33.633Z,17.82
2023-09-30T07:20:07.490Z,17.85
2023-09-30T07:20:40.940Z,17.91
2023-09-30T07:21:14.665Z,17.89
2023-09-30T07:21:56.896Z,17.86
2023-09-30T07:22:50.276Z,17.82
2023-09-30T07:23:32.296Z,17.78
2023-09-30T07:24:05.967Z,17.76
2023-09-30T07:24:40.816Z,17.77